sensor_id;sensor_type;location;lat;lon;timestamp;P1;durP1;ratioP1;P2;durP2;ratioP2
31482;SDS011;18103;52.246;8.052;2023-09-12T00:01:21;13.03;;;6.03;;
31482;SDS011;18103;52.246;8.052;2023-09-12T00:03:49;7.80;;;5.87;;
31482;SDS011;18103;52.246;8.052;2023-09-12T00:06:14;12.13;;;7.63;;
31482;SDS011;18103;52.246;8.052;2023-09-12T00:08:42;14.63;;;7.63;;
31482;SDS011;18103;52.246;8.052;2023-09-12T00:11:08;10.47;;;7.13;;
31482;SDS011;18103;52.246;8.052;2023-09-12T00:13:40;15.13;;;7.47;;
31482;SDS011;18103;52.246;8.052;2023-09-12T00:16:06;10.07;;;7.00;;
31482;SDS011;18103;52.246;8.052;2023-09-12T00:18:34;14.30;;;7.77;;
31482;SDS011;18103;52.246;8.052;2023-09-12T00:21:00;14.00;;;7.37;;
31482;SDS011;18103;52.246;8.052;2023-09-12T00:23:27;15.13;;;8.80;;
31482;SDS011;18103;52.246;8.052;2023-09-12T00:25:56;15.00;;;9.50;;
31482;SDS011;18103;52.246;8.052;2023-09-12T00:28:22;14.70;;;10.30;;
31482;SDS011;18103;52.246;8.052;2023-09-12T00:30:51;14.40;;;8.60;;
31482;SDS011;18103;52.246;8.052;2023-09-12T00:33:17;15.23;;;9.27;;
31482;SDS011;18103;52.246;8.052;2023-09-12T00:35:45;15.50;;;10.00;;
31482;SDS011;18103;52.246;8.052;2023-09-12T00:38:12;22.47;;;10.93;;
31482;SDS011;18103;52.246;8.052;2023-09-12T00:40:38;20.67;;;9.93;;
31482;SDS011;18103;52.246;8.052;2023-09-12T00:43:03;19.63;;;10.70;;
31482;SDS011;18103;52.246;8.052;2023-09-12T00:45:29;22.17;;;10.17;;
31482;SDS011;18103;52.246;8.052;2023-09-12T00:47:55;16.47;;;10.27;;
31482;SDS011;18103;52.246;8.052;2023-09-12T00:50:25;17.00;;;9.53;;
31482;SDS011;18103;52.246;8.052;2023-09-12T00:52:53;15.00;;;10.70;;
31482;SDS011;18103;52.246;8.052;2023-09-12T00:55:22;23.10;;;11.07;;
31482;SDS011;18103;52.246;8.052;2023-09-12T00:57:49;21.30;;;10.23;;
31482;SDS011;18103;52.246;8.052;2023-09-12T01:00:19;22.20;;;10.37;;
31482;SDS011;18103;52.246;8.052;2023-09-12T01:02:45;16.43;;;10.33;;
31482;SDS011;18103;52.246;8.052;2023-09-12T01:05:12;19.57;;;10.13;;
31482;SDS011;18103;52.246;8.052;2023-09-12T01:07:39;18.03;;;11.03;;
31482;SDS011;18103;52.246;8.052;2023-09-12T01:10:07;21.07;;;9.83;;
31482;SDS011;18103;52.246;8.052;2023-09-12T01:12:33;17.00;;;10.40;;
31482;SDS011;18103;52.246;8.052;2023-09-12T01:15:01;24.97;;;9.90;;
31482;SDS011;18103;52.246;8.052;2023-09-12T01:17:29;16.93;;;9.80;;
31482;SDS011;18103;52.246;8.052;2023-09-12T01:19:55;18.40;;;10.30;;
31482;SDS011;18103;52.246;8.052;2023-09-12T01:28:18;22.30;;;11.60;;
31482;SDS011;18103;52.246;8.052;2023-09-12T01:30:48;17.17;;;10.40;;
31482;SDS011;18103;52.246;8.052;2023-09-12T01:33:15;21.33;;;11.60;;
31482;SDS011;18103;52.246;8.052;2023-09-12T01:35:41;19.90;;;11.77;;
31482;SDS011;18103;52.246;8.052;2023-09-12T01:38:06;16.30;;;11.17;;
31482;SDS011;18103;52.246;8.052;2023-09-12T01:40:34;22.20;;;11.97;;
31482;SDS011;18103;52.246;8.052;2023-09-12T01:43:04;24.20;;;11.50;;
31482;SDS011;18103;52.246;8.052;2023-09-12T01:45:33;19.20;;;10.80;;
31482;SDS011;18103;52.246;8.052;2023-09-12T01:48:01;20.03;;;11.53;;
31482;SDS011;18103;52.246;8.052;2023-09-12T01:50:32;22.33;;;12.13;;
31482;SDS011;18103;52.246;8.052;2023-09-12T01:53:00;20.00;;;13.30;;
31482;SDS011;18103;52.246;8.052;2023-09-12T01:55:26;28.43;;;13.87;;
31482;SDS011;18103;52.246;8.052;2023-09-12T01:57:55;23.77;;;14.40;;
31482;SDS011;18103;52.246;8.052;2023-09-12T02:00:22;25.30;;;14.73;;
31482;SDS011;18103;52.246;8.052;2023-09-12T02:02:49;28.00;;;14.97;;
31482;SDS011;18103;52.246;8.052;2023-09-12T02:05:16;25.43;;;15.47;;
31482;SDS011;18103;52.246;8.052;2023-09-12T02:07:43;25.43;;;13.53;;
31482;SDS011;18103;52.246;8.052;2023-09-12T02:10:12;25.27;;;13.17;;
31482;SDS011;18103;52.246;8.052;2023-09-12T02:12:38;18.63;;;12.27;;
31482;SDS011;18103;52.246;8.052;2023-09-12T02:15:04;26.17;;;12.13;;
31482;SDS011;18103;52.246;8.052;2023-09-12T02:17:30;23.27;;;11.43;;
31482;SDS011;18103;52.246;8.052;2023-09-12T02:19:58;19.30;;;12.17;;
31482;SDS011;18103;52.246;8.052;2023-09-12T02:22:23;23.40;;;11.37;;
31482;SDS011;18103;52.246;8.052;2023-09-12T02:24:49;18.43;;;10.87;;
31482;SDS011;18103;52.246;8.052;2023-09-12T02:27:17;20.93;;;11.13;;
31482;SDS011;18103;52.246;8.052;2023-09-12T02:29:42;19.37;;;11.70;;
31482;SDS011;18103;52.246;8.052;2023-09-12T02:32:08;22.87;;;12.03;;
31482;SDS011;18103;52.246;8.052;2023-09-12T02:34:34;18.00;;;10.47;;
31482;SDS011;18103;52.246;8.052;2023-09-12T02:37:02;18.57;;;11.23;;
31482;SDS011;18103;52.246;8.052;2023-09-12T02:39:27;18.77;;;9.90;;
31482;SDS011;18103;52.246;8.052;2023-09-12T02:41:52;19.80;;;10.30;;
31482;SDS011;18103;52.246;8.052;2023-09-12T02:44:18;20.93;;;11.00;;
31482;SDS011;18103;52.246;8.052;2023-09-12T02:46:43;20.63;;;10.03;;
31482;SDS011;18103;52.246;8.052;2023-09-12T02:49:13;14.73;;;10.27;;
31482;SDS011;18103;52.246;8.052;2023-09-12T02:51:41;16.00;;;10.13;;
31482;SDS011;18103;52.246;8.052;2023-09-12T02:54:07;17.57;;;11.53;;
31482;SDS011;18103;52.246;8.052;2023-09-12T02:56:34;17.13;;;11.00;;
31482;SDS011;18103;52.246;8.052;2023-09-12T02:59:00;19.47;;;11.33;;
31482;SDS011;18103;52.246;8.052;2023-09-12T03:01:25;18.70;;;12.00;;
31482;SDS011;18103;52.246;8.052;2023-09-12T03:03:53;19.63;;;11.57;;
31482;SDS011;18103;52.246;8.052;2023-09-12T03:06:21;25.10;;;12.13;;
31482;SDS011;18103;52.246;8.052;2023-09-12T03:08:47;21.60;;;11.73;;
31482;SDS011;18103;52.246;8.052;2023-09-12T03:11:13;28.70;;;12.20;;
31482;SDS011;18103;52.246;8.052;2023-09-12T03:13:39;22.47;;;11.60;;
31482;SDS011;18103;52.246;8.052;2023-09-12T03:16:09;20.63;;;10.73;;
31482;SDS011;18103;52.246;8.052;2023-09-12T03:18:35;13.57;;;9.37;;
31482;SDS011;18103;52.246;8.052;2023-09-12T03:21:01;15.00;;;9.43;;
31482;SDS011;18103;52.246;8.052;2023-09-12T03:23:26;14.73;;;9.27;;
31482;SDS011;18103;52.246;8.052;2023-09-12T03:25:52;15.63;;;10.27;;
31482;SDS011;18103;52.246;8.052;2023-09-12T03:28:17;19.73;;;10.37;;
31482;SDS011;18103;52.246;8.052;2023-09-12T03:30:43;16.70;;;10.87;;
31482;SDS011;18103;52.246;8.052;2023-09-12T03:33:10;20.03;;;9.93;;
31482;SDS011;18103;52.246;8.052;2023-09-12T03:35:38;18.33;;;9.67;;
31482;SDS011;18103;52.246;8.052;2023-09-12T03:38:03;12.37;;;7.37;;
31482;SDS011;18103;52.246;8.052;2023-09-12T03:40:29;12.00;;;7.27;;
31482;SDS011;18103;52.246;8.052;2023-09-12T03:42:59;11.27;;;5.93;;
31482;SDS011;18103;52.246;8.052;2023-09-12T03:45:24;11.93;;;5.90;;
31482;SDS011;18103;52.246;8.052;2023-09-12T03:47:50;9.97;;;5.47;;
31482;SDS011;18103;52.246;8.052;2023-09-12T03:50:16;9.97;;;5.70;;
31482;SDS011;18103;52.246;8.052;2023-09-12T03:52:44;7.57;;;4.23;;
31482;SDS011;18103;52.246;8.052;2023-09-12T03:55:11;9.23;;;4.60;;
31482;SDS011;18103;52.246;8.052;2023-09-12T03:57:42;7.77;;;4.50;;
31482;SDS011;18103;52.246;8.052;2023-09-12T04:00:08;6.70;;;4.50;;
31482;SDS011;18103;52.246;8.052;2023-09-12T04:02:34;6.83;;;3.53;;
31482;SDS011;18103;52.246;8.052;2023-09-12T04:05:01;4.90;;;3.50;;
31482;SDS011;18103;52.246;8.052;2023-09-12T04:07:31;4.37;;;3.10;;
31482;SDS011;18103;52.246;8.052;2023-09-12T04:09:56;9.03;;;3.93;;
31482;SDS011;18103;52.246;8.052;2023-09-12T04:12:24;4.80;;;3.77;;
31482;SDS011;18103;52.246;8.052;2023-09-12T04:14:52;5.97;;;3.57;;
31482;SDS011;18103;52.246;8.052;2023-09-12T04:17:18;7.70;;;3.70;;
31482;SDS011;18103;52.246;8.052;2023-09-12T04:19:45;5.20;;;3.03;;
31482;SDS011;18103;52.246;8.052;2023-09-12T04:22:10;5.13;;;2.57;;
31482;SDS011;18103;52.246;8.052;2023-09-12T04:24:36;6.30;;;3.50;;
31482;SDS011;18103;52.246;8.052;2023-09-12T04:27:01;6.03;;;3.33;;
31482;SDS011;18103;52.246;8.052;2023-09-12T04:29:31;6.97;;;3.63;;
31482;SDS011;18103;52.246;8.052;2023-09-12T04:32:04;8.50;;;3.47;;
31482;SDS011;18103;52.246;8.052;2023-09-12T04:34:29;6.53;;;3.17;;
31482;SDS011;18103;52.246;8.052;2023-09-12T04:36:57;5.43;;;3.27;;
31482;SDS011;18103;52.246;8.052;2023-09-12T04:39:27;5.17;;;2.77;;
31482;SDS011;18103;52.246;8.052;2023-09-12T04:41:53;6.27;;;3.77;;
31482;SDS011;18103;52.246;8.052;2023-09-12T04:44:18;5.43;;;3.17;;
31482;SDS011;18103;52.246;8.052;2023-09-12T04:46:46;5.63;;;2.93;;
31482;SDS011;18103;52.246;8.052;2023-09-12T04:49:11;5.10;;;3.33;;
31482;SDS011;18103;52.246;8.052;2023-09-12T04:51:42;10.87;;;3.10;;
31482;SDS011;18103;52.246;8.052;2023-09-12T04:54:09;4.57;;;3.37;;
31482;SDS011;18103;52.246;8.052;2023-09-12T04:56:37;5.43;;;3.67;;
31482;SDS011;18103;52.246;8.052;2023-09-12T04:59:02;9.63;;;3.57;;
31482;SDS011;18103;52.246;8.052;2023-09-12T05:01:31;7.27;;;3.87;;
31482;SDS011;18103;52.246;8.052;2023-09-12T05:03:57;5.07;;;3.57;;
31482;SDS011;18103;52.246;8.052;2023-09-12T05:06:22;6.73;;;3.97;;
31482;SDS011;18103;52.246;8.052;2023-09-12T05:08:52;6.73;;;3.43;;
31482;SDS011;18103;52.246;8.052;2023-09-12T05:11:17;8.20;;;3.37;;
31482;SDS011;18103;52.246;8.052;2023-09-12T05:13:45;8.30;;;3.77;;
31482;SDS011;18103;52.246;8.052;2023-09-12T05:16:13;10.03;;;4.30;;
31482;SDS011;18103;52.246;8.052;2023-09-12T05:18:38;6.87;;;4.00;;
31482;SDS011;18103;52.246;8.052;2023-09-12T05:21:07;5.13;;;3.47;;
31482;SDS011;18103;52.246;8.052;2023-09-12T05:23:34;5.90;;;3.87;;
31482;SDS011;18103;52.246;8.052;2023-09-12T05:26:00;11.63;;;3.80;;
31482;SDS011;18103;52.246;8.052;2023-09-12T05:28:27;8.23;;;4.00;;
31482;SDS011;18103;52.246;8.052;2023-09-12T05:30:53;9.90;;;4.10;;
31482;SDS011;18103;52.246;8.052;2023-09-12T05:33:21;7.40;;;4.00;;
31482;SDS011;18103;52.246;8.052;2023-09-12T05:35:47;10.53;;;4.53;;
31482;SDS011;18103;52.246;8.052;2023-09-12T05:38:15;6.87;;;3.93;;
31482;SDS011;18103;52.246;8.052;2023-09-12T05:40:40;6.77;;;3.60;;
31482;SDS011;18103;52.246;8.052;2023-09-12T05:43:06;10.00;;;4.27;;
31482;SDS011;18103;52.246;8.052;2023-09-12T05:45:33;10.37;;;3.70;;
31482;SDS011;18103;52.246;8.052;2023-09-12T05:48:01;7.90;;;4.23;;
31482;SDS011;18103;52.246;8.052;2023-09-12T05:50:31;8.70;;;4.43;;
31482;SDS011;18103;52.246;8.052;2023-09-12T05:52:57;9.57;;;4.70;;
31482;SDS011;18103;52.246;8.052;2023-09-12T05:55:22;6.63;;;3.80;;
31482;SDS011;18103;52.246;8.052;2023-09-12T05:57:49;9.33;;;4.33;;
31482;SDS011;18103;52.246;8.052;2023-09-12T06:00:19;9.73;;;4.20;;
31482;SDS011;18103;52.246;8.052;2023-09-12T06:02:46;8.47;;;4.70;;
31482;SDS011;18103;52.246;8.052;2023-09-12T06:05:14;13.30;;;4.87;;
31482;SDS011;18103;52.246;8.052;2023-09-12T06:07:40;6.93;;;4.60;;
31482;SDS011;18103;52.246;8.052;2023-09-12T06:10:06;6.33;;;4.37;;
31482;SDS011;18103;52.246;8.052;2023-09-12T06:12:33;8.87;;;3.90;;
31482;SDS011;18103;52.246;8.052;2023-09-12T06:15:01;7.67;;;4.23;;
31482;SDS011;18103;52.246;8.052;2023-09-12T06:17:26;6.00;;;4.50;;
31482;SDS011;18103;52.246;8.052;2023-09-12T06:19:52;5.87;;;4.20;;
31482;SDS011;18103;52.246;8.052;2023-09-12T06:22:19;9.13;;;4.57;;
31482;SDS011;18103;52.246;8.052;2023-09-12T06:24:45;14.83;;;3.83;;
31482;SDS011;18103;52.246;8.052;2023-09-12T06:27:11;6.40;;;4.67;;
31482;SDS011;18103;52.246;8.052;2023-09-12T06:29:43;8.17;;;4.90;;
31482;SDS011;18103;52.246;8.052;2023-09-12T06:32:11;8.00;;;4.73;;
31482;SDS011;18103;52.246;8.052;2023-09-12T06:34:39;6.20;;;4.33;;
31482;SDS011;18103;52.246;8.052;2023-09-12T06:37:07;6.20;;;4.40;;
31482;SDS011;18103;52.246;8.052;2023-09-12T06:39:34;6.70;;;4.07;;
31482;SDS011;18103;52.246;8.052;2023-09-12T06:42:00;8.83;;;4.97;;
31482;SDS011;18103;52.246;8.052;2023-09-12T06:44:28;4.93;;;4.27;;
31482;SDS011;18103;52.246;8.052;2023-09-12T06:46:53;11.70;;;5.43;;
31482;SDS011;18103;52.246;8.052;2023-09-12T06:49:18;5.77;;;4.60;;
31482;SDS011;18103;52.246;8.052;2023-09-12T06:51:46;9.43;;;5.07;;
31482;SDS011;18103;52.246;8.052;2023-09-12T06:54:13;11.37;;;5.00;;
31482;SDS011;18103;52.246;8.052;2023-09-12T06:56:43;8.33;;;4.73;;
31482;SDS011;18103;52.246;8.052;2023-09-12T06:59:09;11.17;;;4.80;;
31482;SDS011;18103;52.246;8.052;2023-09-12T07:01:36;6.57;;;4.33;;
31482;SDS011;18103;52.246;8.052;2023-09-12T07:04:06;7.17;;;4.80;;
31482;SDS011;18103;52.246;8.052;2023-09-12T07:06:32;5.77;;;4.40;;
31482;SDS011;18103;52.246;8.052;2023-09-12T07:08:58;10.63;;;4.80;;
31482;SDS011;18103;52.246;8.052;2023-09-12T07:11:23;7.13;;;4.80;;
31482;SDS011;18103;52.246;8.052;2023-09-12T07:13:51;9.63;;;4.73;;
31482;SDS011;18103;52.246;8.052;2023-09-12T07:16:17;5.90;;;5.03;;
31482;SDS011;18103;52.246;8.052;2023-09-12T07:18:45;8.73;;;4.53;;
31482;SDS011;18103;52.246;8.052;2023-09-12T07:21:13;10.90;;;5.93;;
31482;SDS011;18103;52.246;8.052;2023-09-12T07:23:38;12.50;;;6.27;;
31482;SDS011;18103;52.246;8.052;2023-09-12T07:26:03;9.07;;;5.80;;
31482;SDS011;18103;52.246;8.052;2023-09-12T07:28:31;12.00;;;5.90;;
31482;SDS011;18103;52.246;8.052;2023-09-12T07:30:57;11.53;;;6.27;;
31482;SDS011;18103;52.246;8.052;2023-09-12T07:33:24;12.60;;;7.20;;
31482;SDS011;18103;52.246;8.052;2023-09-12T07:35:52;13.50;;;5.90;;
31482;SDS011;18103;52.246;8.052;2023-09-12T07:38:18;12.50;;;6.77;;
31482;SDS011;18103;52.246;8.052;2023-09-12T07:40:46;10.53;;;6.63;;
31482;SDS011;18103;52.246;8.052;2023-09-12T07:43:14;15.67;;;7.03;;
31482;SDS011;18103;52.246;8.052;2023-09-12T07:45:40;12.00;;;6.80;;
31482;SDS011;18103;52.246;8.052;2023-09-12T07:48:06;11.60;;;7.17;;
31482;SDS011;18103;52.246;8.052;2023-09-12T07:50:33;10.43;;;6.60;;
31482;SDS011;18103;52.246;8.052;2023-09-12T07:53:03;11.47;;;6.60;;
31482;SDS011;18103;52.246;8.052;2023-09-12T07:55:35;12.07;;;7.00;;
31482;SDS011;18103;52.246;8.052;2023-09-12T07:58:10;15.80;;;7.90;;
31482;SDS011;18103;52.246;8.052;2023-09-12T08:00:38;12.57;;;7.17;;
31482;SDS011;18103;52.246;8.052;2023-09-12T08:03:06;12.87;;;7.23;;
31482;SDS011;18103;52.246;8.052;2023-09-12T08:05:31;14.60;;;7.57;;
31482;SDS011;18103;52.246;8.052;2023-09-12T08:07:56;11.23;;;7.60;;
31482;SDS011;18103;52.246;8.052;2023-09-12T08:10:22;13.50;;;8.10;;
31482;SDS011;18103;52.246;8.052;2023-09-12T08:12:49;17.03;;;8.23;;
31482;SDS011;18103;52.246;8.052;2023-09-12T08:15:15;13.27;;;8.00;;
31482;SDS011;18103;52.246;8.052;2023-09-12T08:17:45;15.13;;;9.20;;
31482;SDS011;18103;52.246;8.052;2023-09-12T08:20:13;20.03;;;9.10;;
31482;SDS011;18103;52.246;8.052;2023-09-12T08:22:38;17.50;;;8.57;;
31482;SDS011;18103;52.246;8.052;2023-09-12T08:25:06;15.90;;;9.93;;
31482;SDS011;18103;52.246;8.052;2023-09-12T08:27:32;18.13;;;10.57;;
31482;SDS011;18103;52.246;8.052;2023-09-12T08:29:57;18.60;;;10.93;;
31482;SDS011;18103;52.246;8.052;2023-09-12T08:32:23;17.73;;;10.30;;
31482;SDS011;18103;52.246;8.052;2023-09-12T08:34:49;14.33;;;9.53;;
31482;SDS011;18103;52.246;8.052;2023-09-12T08:37:14;23.27;;;11.03;;
31482;SDS011;18103;52.246;8.052;2023-09-12T08:39:43;21.90;;;11.37;;
31482;SDS011;18103;52.246;8.052;2023-09-12T08:42:12;18.90;;;11.30;;
31482;SDS011;18103;52.246;8.052;2023-09-12T08:51:25;20.17;;;10.30;;
31482;SDS011;18103;52.246;8.052;2023-09-12T08:53:51;17.17;;;10.97;;
31482;SDS011;18103;52.246;8.052;2023-09-12T08:56:17;15.70;;;10.50;;
31482;SDS011;18103;52.246;8.052;2023-09-12T08:58:45;20.97;;;10.33;;
31482;SDS011;18103;52.246;8.052;2023-09-12T09:01:13;16.83;;;10.23;;
31482;SDS011;18103;52.246;8.052;2023-09-12T09:03:41;18.87;;;10.63;;
31482;SDS011;18103;52.246;8.052;2023-09-12T09:06:10;16.87;;;10.97;;
31482;SDS011;18103;52.246;8.052;2023-09-12T09:08:36;21.43;;;11.30;;
31482;SDS011;18103;52.246;8.052;2023-09-12T09:11:03;22.13;;;11.40;;
31482;SDS011;18103;52.246;8.052;2023-09-12T09:13:30;20.80;;;11.87;;
31482;SDS011;18103;52.246;8.052;2023-09-12T09:18:49;23.53;;;11.43;;
31482;SDS011;18103;52.246;8.052;2023-09-12T09:21:26;21.90;;;11.83;;
31482;SDS011;18103;52.246;8.052;2023-09-12T09:23:58;22.23;;;11.43;;
31482;SDS011;18103;52.246;8.052;2023-09-12T09:26:49;21.73;;;12.77;;
31482;SDS011;18103;52.246;8.052;2023-09-12T09:29:17;21.30;;;11.73;;
31482;SDS011;18103;52.246;8.052;2023-09-12T09:31:46;18.40;;;11.33;;
31482;SDS011;18103;52.246;8.052;2023-09-12T09:34:18;20.73;;;10.17;;
31482;SDS011;18103;52.246;8.052;2023-09-12T09:36:48;16.87;;;11.17;;
31482;SDS011;18103;52.246;8.052;2023-09-12T09:39:15;23.30;;;11.80;;
31482;SDS011;18103;52.246;8.052;2023-09-12T09:41:51;21.63;;;12.97;;
31482;SDS011;18103;52.246;8.052;2023-09-12T09:44:20;22.27;;;11.97;;
31482;SDS011;18103;52.246;8.052;2023-09-12T09:46:50;20.17;;;11.90;;
31482;SDS011;18103;52.246;8.052;2023-09-12T09:49:19;20.93;;;11.07;;
31482;SDS011;18103;52.246;8.052;2023-09-12T09:51:48;23.27;;;13.20;;
31482;SDS011;18103;52.246;8.052;2023-09-12T09:54:16;20.80;;;12.70;;
31482;SDS011;18103;52.246;8.052;2023-09-12T09:56:45;20.33;;;12.63;;
31482;SDS011;18103;52.246;8.052;2023-09-12T09:59:19;19.10;;;12.73;;
31482;SDS011;18103;52.246;8.052;2023-09-12T10:01:47;23.40;;;13.07;;
31482;SDS011;18103;52.246;8.052;2023-09-12T10:04:14;23.13;;;12.47;;
31482;SDS011;18103;52.246;8.052;2023-09-12T10:06:45;22.27;;;12.97;;
31482;SDS011;18103;52.246;8.052;2023-09-12T10:09:12;23.40;;;13.27;;
31482;SDS011;18103;52.246;8.052;2023-09-12T10:11:39;20.77;;;12.67;;
31482;SDS011;18103;52.246;8.052;2023-09-12T10:14:06;19.53;;;11.63;;
31482;SDS011;18103;52.246;8.052;2023-09-12T10:16:33;18.20;;;11.03;;
31482;SDS011;18103;52.246;8.052;2023-09-12T10:21:32;17.60;;;10.90;;
31482;SDS011;18103;52.246;8.052;2023-09-12T10:24:00;17.50;;;11.37;;
31482;SDS011;18103;52.246;8.052;2023-09-12T10:26:31;16.90;;;10.73;;
31482;SDS011;18103;52.246;8.052;2023-09-12T10:28:59;14.30;;;9.87;;
31482;SDS011;18103;52.246;8.052;2023-09-12T10:31:25;16.57;;;10.03;;
31482;SDS011;18103;52.246;8.052;2023-09-12T10:33:51;15.00;;;9.53;;
31482;SDS011;18103;52.246;8.052;2023-09-12T10:36:18;19.43;;;9.10;;
31482;SDS011;18103;52.246;8.052;2023-09-12T10:38:46;18.53;;;10.07;;
31482;SDS011;18103;52.246;8.052;2023-09-12T10:41:14;15.47;;;9.20;;
31482;SDS011;18103;52.246;8.052;2023-09-12T10:43:40;17.80;;;9.73;;
31482;SDS011;18103;52.246;8.052;2023-09-12T10:46:08;14.83;;;8.97;;
31482;SDS011;18103;52.246;8.052;2023-09-12T10:48:36;13.63;;;9.07;;
31482;SDS011;18103;52.246;8.052;2023-09-12T10:51:02;15.00;;;9.90;;
31482;SDS011;18103;52.246;8.052;2023-09-12T10:53:31;17.93;;;10.17;;
31482;SDS011;18103;52.246;8.052;2023-09-12T10:56:20;19.20;;;12.30;;
31482;SDS011;18103;52.246;8.052;2023-09-12T11:01:37;24.57;;;14.60;;
31482;SDS011;18103;52.246;8.052;2023-09-12T11:06:48;22.80;;;14.40;;
31482;SDS011;18103;52.246;8.052;2023-09-12T11:09:17;17.43;;;12.60;;
31482;SDS011;18103;52.246;8.052;2023-09-12T11:11:48;15.40;;;11.77;;
31482;SDS011;18103;52.246;8.052;2023-09-12T11:14:19;17.57;;;10.40;;
31482;SDS011;18103;52.246;8.052;2023-09-12T11:19:45;18.40;;;10.57;;
31482;SDS011;18103;52.246;8.052;2023-09-12T11:24:53;13.60;;;9.20;;
31482;SDS011;18103;52.246;8.052;2023-09-12T11:27:21;13.73;;;8.23;;
31482;SDS011;18103;52.246;8.052;2023-09-12T11:29:50;16.40;;;9.33;;
31482;SDS011;18103;52.246;8.052;2023-09-12T11:32:25;10.63;;;8.07;;
31482;SDS011;18103;52.246;8.052;2023-09-12T11:34:55;10.90;;;8.20;;
31482;SDS011;18103;52.246;8.052;2023-09-12T11:37:23;15.23;;;8.77;;
31482;SDS011;18103;52.246;8.052;2023-09-12T11:39:55;16.27;;;7.63;;
31482;SDS011;18103;52.246;8.052;2023-09-12T11:42:22;9.97;;;7.23;;
31482;SDS011;18103;52.246;8.052;2023-09-12T11:44:50;10.60;;;6.60;;
31482;SDS011;18103;52.246;8.052;2023-09-12T11:47:16;11.40;;;6.53;;
31482;SDS011;18103;52.246;8.052;2023-09-12T11:49:42;9.73;;;6.17;;
31482;SDS011;18103;52.246;8.052;2023-09-12T11:52:11;10.77;;;7.87;;
31482;SDS011;18103;52.246;8.052;2023-09-12T11:54:44;15.57;;;7.07;;
31482;SDS011;18103;52.246;8.052;2023-09-12T11:57:13;11.03;;;7.07;;
31482;SDS011;18103;52.246;8.052;2023-09-12T11:59:42;9.37;;;6.90;;
31482;SDS011;18103;52.246;8.052;2023-09-12T12:02:13;8.33;;;6.10;;
31482;SDS011;18103;52.246;8.052;2023-09-12T12:04:39;10.50;;;6.00;;
31482;SDS011;18103;52.246;8.052;2023-09-12T12:07:06;12.33;;;6.30;;
31482;SDS011;18103;52.246;8.052;2023-09-12T12:09:32;10.07;;;7.13;;
31482;SDS011;18103;52.246;8.052;2023-09-12T12:12:04;10.53;;;7.23;;
31482;SDS011;18103;52.246;8.052;2023-09-12T12:14:34;12.67;;;7.27;;
31482;SDS011;18103;52.246;8.052;2023-09-12T12:17:07;11.57;;;8.13;;
31482;SDS011;18103;52.246;8.052;2023-09-12T12:19:37;12.93;;;7.17;;
31482;SDS011;18103;52.246;8.052;2023-09-12T12:22:10;12.10;;;6.23;;
31482;SDS011;18103;52.246;8.052;2023-09-12T12:24:36;10.60;;;6.10;;
31482;SDS011;18103;52.246;8.052;2023-09-12T12:27:06;10.73;;;7.03;;
31482;SDS011;18103;52.246;8.052;2023-09-12T12:29:36;14.40;;;7.43;;
31482;SDS011;18103;52.246;8.052;2023-09-12T12:32:04;12.90;;;7.30;;
31482;SDS011;18103;52.246;8.052;2023-09-12T12:34:30;10.77;;;5.90;;
31482;SDS011;18103;52.246;8.052;2023-09-12T12:37:00;9.63;;;5.73;;
31482;SDS011;18103;52.246;8.052;2023-09-12T12:39:25;9.30;;;6.17;;
31482;SDS011;18103;52.246;8.052;2023-09-12T12:41:54;7.53;;;5.27;;
31482;SDS011;18103;52.246;8.052;2023-09-12T12:44:20;9.23;;;5.93;;
31482;SDS011;18103;52.246;8.052;2023-09-12T12:47:00;8.83;;;5.30;;
31482;SDS011;18103;52.246;8.052;2023-09-12T12:49:29;5.43;;;4.53;;
31482;SDS011;18103;52.246;8.052;2023-09-12T12:52:04;11.03;;;4.87;;
31482;SDS011;18103;52.246;8.052;2023-09-12T12:54:33;8.20;;;4.73;;
31482;SDS011;18103;52.246;8.052;2023-09-12T12:57:00;8.20;;;4.83;;
31482;SDS011;18103;52.246;8.052;2023-09-12T12:59:27;10.43;;;5.27;;
31482;SDS011;18103;52.246;8.052;2023-09-12T13:02:02;7.40;;;5.67;;
31482;SDS011;18103;52.246;8.052;2023-09-12T13:04:38;7.77;;;5.23;;
31482;SDS011;18103;52.246;8.052;2023-09-12T13:07:09;7.93;;;5.47;;
31482;SDS011;18103;52.246;8.052;2023-09-12T13:09:35;8.73;;;5.00;;
31482;SDS011;18103;52.246;8.052;2023-09-12T13:12:02;7.23;;;4.83;;
31482;SDS011;18103;52.246;8.052;2023-09-12T13:14:31;6.73;;;4.73;;
31482;SDS011;18103;52.246;8.052;2023-09-12T13:16:59;9.67;;;5.33;;
31482;SDS011;18103;52.246;8.052;2023-09-12T13:19:28;6.33;;;4.60;;
31482;SDS011;18103;52.246;8.052;2023-09-12T13:21:53;5.87;;;4.27;;
31482;SDS011;18103;52.246;8.052;2023-09-12T13:24:19;9.43;;;4.83;;
31482;SDS011;18103;52.246;8.052;2023-09-12T13:26:50;8.40;;;4.23;;
31482;SDS011;18103;52.246;8.052;2023-09-12T13:29:19;6.87;;;4.50;;
31482;SDS011;18103;52.246;8.052;2023-09-12T13:31:46;11.47;;;4.60;;
31482;SDS011;18103;52.246;8.052;2023-09-12T13:34:12;6.60;;;4.10;;
31482;SDS011;18103;52.246;8.052;2023-09-12T13:36:37;8.43;;;4.63;;
31482;SDS011;18103;52.246;8.052;2023-09-12T13:39:02;5.60;;;3.90;;
31482;SDS011;18103;52.246;8.052;2023-09-12T13:41:29;8.93;;;4.17;;
31482;SDS011;18103;52.246;8.052;2023-09-12T13:43:54;7.00;;;4.80;;
31482;SDS011;18103;52.246;8.052;2023-09-12T13:46:24;5.83;;;3.87;;
31482;SDS011;18103;52.246;8.052;2023-09-12T13:48:50;6.03;;;4.27;;
31482;SDS011;18103;52.246;8.052;2023-09-12T13:51:18;9.90;;;4.97;;
31482;SDS011;18103;52.246;8.052;2023-09-12T13:53:43;6.77;;;4.90;;
31482;SDS011;18103;52.246;8.052;2023-09-12T13:56:12;8.27;;;4.77;;
31482;SDS011;18103;52.246;8.052;2023-09-12T13:58:37;4.87;;;4.10;;
31482;SDS011;18103;52.246;8.052;2023-09-12T14:01:05;6.53;;;4.50;;
31482;SDS011;18103;52.246;8.052;2023-09-12T14:03:31;7.33;;;4.03;;
31482;SDS011;18103;52.246;8.052;2023-09-12T14:05:56;4.93;;;4.40;;
31482;SDS011;18103;52.246;8.052;2023-09-12T14:08:22;6.50;;;4.60;;
31482;SDS011;18103;52.246;8.052;2023-09-12T14:10:47;5.80;;;4.03;;
31482;SDS011;18103;52.246;8.052;2023-09-12T14:13:14;10.30;;;4.43;;
31482;SDS011;18103;52.246;8.052;2023-09-12T14:15:42;5.73;;;4.47;;
31482;SDS011;18103;52.246;8.052;2023-09-12T14:18:11;5.43;;;4.23;;
31482;SDS011;18103;52.246;8.052;2023-09-12T14:20:39;9.57;;;4.43;;
31482;SDS011;18103;52.246;8.052;2023-09-12T14:23:04;6.73;;;4.67;;
31482;SDS011;18103;52.246;8.052;2023-09-12T14:25:32;6.57;;;4.57;;
31482;SDS011;18103;52.246;8.052;2023-09-12T14:27:57;7.97;;;4.93;;
31482;SDS011;18103;52.246;8.052;2023-09-12T14:30:23;7.33;;;4.87;;
31482;SDS011;18103;52.246;8.052;2023-09-12T14:32:51;5.97;;;4.23;;
31482;SDS011;18103;52.246;8.052;2023-09-12T14:35:21;5.93;;;4.70;;
31482;SDS011;18103;52.246;8.052;2023-09-12T14:37:46;10.70;;;5.03;;
31482;SDS011;18103;52.246;8.052;2023-09-12T14:40:16;8.03;;;5.47;;
31482;SDS011;18103;52.246;8.052;2023-09-12T14:42:44;8.30;;;4.23;;
31482;SDS011;18103;52.246;8.052;2023-09-12T14:45:09;11.10;;;5.00;;
31482;SDS011;18103;52.246;8.052;2023-09-12T14:47:41;10.03;;;4.97;;
31482;SDS011;18103;52.246;8.052;2023-09-12T14:50:08;12.17;;;5.37;;
31482;SDS011;18103;52.246;8.052;2023-09-12T14:52:36;7.23;;;4.77;;
31482;SDS011;18103;52.246;8.052;2023-09-12T14:55:03;9.87;;;4.70;;
31482;SDS011;18103;52.246;8.052;2023-09-12T14:57:33;8.63;;;4.40;;
31482;SDS011;18103;52.246;8.052;2023-09-12T15:00:01;5.70;;;4.03;;
31482;SDS011;18103;52.246;8.052;2023-09-12T15:02:28;6.27;;;4.00;;
31482;SDS011;18103;52.246;8.052;2023-09-12T15:04:57;5.63;;;4.20;;
31482;SDS011;18103;52.246;8.052;2023-09-12T15:07:30;10.43;;;3.50;;